Terminal Aerodrome Forecast
Issued by NWS

Home | Current Version | Previous Version | Text Only | Print | Product List | Glossary On
Versions: 1 2 3 4 5 6 7 8 9 10 11 12 13 14 15 16
000
FTUS42 KILM 010535
TAFCRE
TAF
KCRE 010535Z 0106/0206 VRB03KT P6SM VCSH BKN060
     FM011000 VRB03KT 4SM BR SCT008 SCT040 BKN150
     FM011300 VRB04KT P6SM SCT060 BKN100
      TEMPO 0113/0117 5SM -SHRA BKN050
     FM011700 16006KT P6SM VCSH BKN040 BKN100
      TEMPO 0117/0121 5SM -TSRA BKN035CB
     FM012100 20010KT P6SM SCT040 BKN080
     FM020000 21008KT P6SM SCT080=

USA.gov is the U.S. government's official web portal to all federal, state and local government web resources and services.